createdAt,value
2019-04-16T00:05:14.359Z,60.47
2019-04-16T00:10:26.729Z,60.79
2019-04-16T00:15:30.793Z,60.93
2019-04-16T00:20:37.970Z,61.48
2019-04-16T00:25:42.361Z,61.23
2019-04-16T00:30:46.503Z,61.10
2019-04-16T00:35:50.553Z,61.56
2019-04-16T00:40:54.633Z,61.76
2019-04-16T00:45:58.749Z,61.48
2019-04-16T00:51:02.782Z,61.35
2019-04-16T00:56:06.802Z,62.01
2019-04-16T01:01:10.895Z,62.01
2019-04-16T01:06:14.934Z,61.82
2019-04-16T01:11:18.983Z,61.84
2019-04-16T01:16:23.827Z,61.84
2019-04-16T01:21:27.955Z,62.24
2019-04-16T01:26:32.055Z,61.89
2019-04-16T01:32:01.363Z,61.89
2019-04-16T01:37:27.531Z,62.10
2019-04-16T01:42:32.268Z,62.10
2019-04-16T01:47:37.328Z,62.63
2019-04-16T01:52:41.497Z,62.50
2019-04-16T01:57:45.646Z,62.50
2019-04-16T02:02:49.767Z,62.52
2019-04-16T02:07:56.394Z,62.79
2019-04-16T02:12:59.751Z,62.50
2019-04-16T02:18:04.005Z,62.50
2019-04-16T02:23:08.258Z,63.20
2019-04-16T02:28:12.292Z,62.93
2019-04-16T02:33:16.444Z,62.93
2019-04-16T02:38:20.589Z,63.08
2019-04-16T02:43:24.894Z,63.18
2019-04-16T02:48:29.127Z,63.28
2019-04-16T02:53:54.452Z,62.96
2019-04-16T02:59:09.692Z,62.87
2019-04-16T03:04:11.898Z,63.35
2019-04-16T03:09:16.075Z,63.23
2019-04-16T03:14:20.171Z,63.23
2019-04-16T03:19:29.084Z,63.20
2019-04-16T03:24:33.119Z,63.58
2019-04-16T03:29:37.460Z,63.53
2019-04-16T03:34:41.579Z,63.19
2019-04-16T03:39:45.719Z,63.10
2019-04-16T03:44:49.758Z,63.10
2019-04-16T03:49:56.369Z,63.05
2019-04-16T03:54:59.609Z,63.12
2019-04-16T04:00:03.817Z,63.31
2019-04-16T04:05:08.137Z,62.83
2019-04-16T04:10:12.558Z,62.83
2019-04-16T04:15:16.689Z,63.02
2019-04-16T04:20:20.695Z,63.16
2019-04-16T04:25:24.783Z,62.89
2019-04-16T04:30:29.658Z,62.81
2019-04-16T04:35:33.897Z,63.01
2019-04-16T04:40:44.731Z,63.33
2019-04-16T04:45:43.763Z,62.86
2019-04-16T04:50:47.794Z,62.86
2019-04-16T04:55:54.461Z,63.01
2019-04-16T05:00:57.807Z,63.01
2019-04-16T05:06:02.387Z,62.84
2019-04-16T05:11:06.403Z,62.84
2019-04-16T05:16:10.570Z,62.98
2019-04-16T05:21:17.598Z,62.69
2019-04-16T05:26:20.462Z,63.27
2019-04-16T05:31:25.688Z,62.77
2019-04-16T05:36:30.166Z,62.80
2019-04-16T05:41:34.215Z,63.23
2019-04-16T05:46:38.448Z,63.23
2019-04-16T05:51:42.534Z,62.82
2019-04-16T05:56:52.373Z,63.14
2019-04-16T06:02:01.657Z,62.54
2019-04-16T06:07:07.663Z,62.73
2019-04-16T06:12:11.623Z,62.64
2019-04-16T06:17:34.667Z,62.73
2019-04-16T06:23:00.586Z,62.68
2019-04-16T06:28:20.381Z,62.88
2019-04-16T06:33:38.763Z,62.88
2019-04-16T06:39:00.705Z,62.44
2019-04-16T06:44:09.576Z,62.50
2019-04-16T06:49:35.514Z,62.42
2019-04-16T06:54:52.867Z,62.42
2019-04-16T07:00:02.363Z,62.13
2019-04-16T07:05:22.625Z,62.13
2019-04-16T07:10:43.738Z,62.39
2019-04-16T07:15:36.534Z,62.33
2019-04-16T07:20:42.325Z,62.19
2019-04-16T07:25:46.874Z,62.19
2019-04-16T07:31:14.875Z,61.64
2019-04-16T07:36:28.114Z,60.92
2019-04-16T07:42:07.758Z,60.64
2019-04-16T07:47:20.027Z,59.02
2019-04-16T07:52:43.200Z,59.31
2019-04-16T07:57:47.305Z,58.94
2019-04-16T08:02:53.651Z,58.59
2019-04-16T08:07:57.174Z,58.85
2019-04-16T08:13:08.780Z,58.09
2019-04-16T08:18:12.889Z,57.61
2019-04-16T08:23:44.966Z,57.18
2019-04-16T08:28:52.448Z,56.73
2019-04-16T08:33:56.486Z,56.73
2019-04-16T08:39:05.831Z,57.00
2019-04-16T08:44:09.579Z,56.46
2019-04-16T08:49:15.056Z,56.46
2019-04-16T08:54:18.906Z,43.34
2019-04-16T08:59:23.015Z,43.34
2019-04-16T09:04:27.212Z,42.19
2019-04-16T09:09:49.466Z,43.15
2019-04-16T09:14:55.982Z,43.15
2019-04-16T09:20:24.586Z,42.30
2019-04-16T09:25:42.496Z,42.55
2019-04-16T09:31:10.358Z,42.55
2019-04-16T09:36:32.404Z,41.96
2019-04-16T09:41:39.802Z,40.65
2019-04-16T09:46:51.142Z,40.18
2019-04-16T09:51:51.088Z,40.16
2019-04-16T09:56:56.815Z,40.07
2019-04-16T10:02:35.363Z,40.07
2019-04-16T10:07:40.285Z,39.51
2019-04-16T10:12:45.173Z,39.51
2019-04-16T10:17:49.279Z,41.24
2019-04-16T10:22:53.442Z,41.67
2019-04-16T10:28:05.689Z,43.50
2019-04-16T10:33:09.796Z,44.56
2019-04-16T10:38:31.551Z,46.01
2019-04-16T10:43:49.588Z,45.12
2019-04-16T10:49:00.176Z,45.16
2019-04-16T10:54:10.062Z,47.64
2019-04-16T10:59:31.991Z,47.26
2019-04-16T11:04:43.293Z,47.26
2019-04-16T11:09:47.802Z,48.31
2019-04-16T11:14:51.887Z,45.84
2019-04-16T11:19:56.202Z,44.29
2019-04-16T11:25:00.305Z,45.47
2019-04-16T11:30:07.020Z,45.47
2019-04-16T11:35:13.379Z,43.74
2019-04-16T11:40:17.324Z,42.87
2019-04-16T11:45:21.525Z,43.40
2019-04-16T11:50:25.701Z,44.74
2019-04-16T11:55:29.838Z,44.74
2019-04-16T12:00:48.358Z,45.73
2019-04-16T12:06:27.390Z,45.58
2019-04-16T12:11:22.675Z,46.87
2019-04-16T12:16:51.856Z,46.87
2019-04-16T12:22:13.667Z,47.15
2019-04-16T12:27:36.685Z,46.75
2019-04-16T12:32:52.494Z,48.21
2019-04-16T12:38:11.999Z,48.56
2019-04-16T12:43:22.699Z,48.32
2019-04-16T12:48:44.760Z,48.53
2019-04-16T12:54:07.835Z,48.53
2019-04-16T12:59:23.071Z,48.37
2019-04-16T13:04:35.815Z,48.16
2019-04-16T13:09:48.575Z,48.07
2019-04-16T13:15:07.223Z,48.34
2019-04-16T13:20:29.501Z,48.87
2019-04-16T13:25:40.472Z,47.77
2019-04-16T13:30:44.549Z,47.77
2019-04-16T13:35:48.697Z,49.05
2019-04-16T13:40:53.254Z,50.07
2019-04-16T13:45:58.886Z,50.53
2019-04-16T13:51:06.923Z,50.77
2019-04-16T13:56:30.475Z,50.77
2019-04-16T14:01:39.349Z,50.74
2019-04-16T14:06:46.126Z,50.74
2019-04-16T14:11:51.317Z,51.28
2019-04-16T14:16:55.888Z,51.92
2019-04-16T14:22:00.183Z,50.26
2019-04-16T14:27:04.595Z,50.77
2019-04-16T14:32:09.005Z,50.92
2019-04-16T14:37:13.385Z,51.23
2019-04-16T14:42:19.146Z,51.71
2019-04-16T14:47:23.408Z,51.93
2019-04-16T14:52:27.465Z,51.83
2019-04-16T14:57:31.505Z,51.98
2019-04-16T15:02:46.466Z,51.83
2019-04-16T15:07:57.917Z,52.06
2019-04-16T15:13:21.004Z,51.82
2019-04-16T15:18:42.966Z,51.61
2019-04-16T15:24:04.984Z,51.89
2019-04-16T15:29:30.751Z,51.89
2019-04-16T15:34:41.939Z,51.95
2019-04-16T15:39:59.238Z,51.67
2019-04-16T15:45:37.507Z,51.67
2019-04-16T15:51:34.497Z,51.39
2019-04-16T15:57:00.081Z,51.31
2019-04-16T16:02:26.048Z,51.71
2019-04-16T16:07:34.162Z,51.70
2019-04-16T16:12:38.207Z,51.59
2019-04-16T16:18:18.866Z,52.62
2019-04-16T16:23:23.212Z,53.28
2019-04-16T16:28:27.535Z,54.35
2019-04-16T16:33:31.550Z,54.41
2019-04-16T16:38:35.598Z,53.33
2019-04-16T16:43:39.629Z,52.43
2019-04-16T16:48:43.934Z,51.74
2019-04-16T16:53:59.078Z,51.50
2019-04-16T16:59:07.414Z,51.78
2019-04-16T17:04:17.748Z,51.82
2019-04-16T17:09:40.739Z,51.69
2019-04-16T17:14:44.743Z,51.82
2019-04-16T17:19:50.751Z,51.82
2019-04-16T17:24:54.680Z,51.66
2019-04-16T17:29:58.728Z,51.74
2019-04-16T17:35:06.392Z,52.03
2019-04-16T17:40:26.922Z,52.05
2019-04-16T17:45:47.931Z,52.36
2019-04-16T17:51:05.558Z,52.77
2019-04-16T17:56:37.201Z,52.87
2019-04-16T18:01:58.828Z,52.79
2019-04-16T18:07:30.716Z,52.42
2019-04-16T18:12:55.104Z,51.35
2019-04-16T18:18:16.925Z,51.50
2019-04-16T18:23:27.813Z,51.50
2019-04-16T18:28:39.268Z,51.59
2019-04-16T18:34:01.569Z,51.59
2019-04-16T18:39:25.173Z,51.59
2019-04-16T18:44:51.319Z,51.97
2019-04-16T18:49:59.347Z,51.25
2019-04-16T18:55:03.678Z,51.85
2019-04-16T19:00:18.498Z,51.49
2019-04-16T19:05:22.530Z,51.38
2019-04-16T19:10:26.901Z,51.38
2019-04-16T19:15:30.931Z,51.03
2019-04-16T19:20:34.971Z,51.07
2019-04-16T19:25:39.050Z,51.48
2019-04-16T19:30:43.212Z,51.77
2019-04-16T19:35:51.185Z,52.18
2019-04-16T19:40:53.280Z,52.38
2019-04-16T19:45:57.298Z,52.44
2019-04-16T19:51:01.301Z,52.88
2019-04-16T19:56:05.409Z,52.99
2019-04-16T20:01:11.945Z,53.48
2019-04-16T20:06:15.311Z,53.13
2019-04-16T20:11:21.370Z,53.34
2019-04-16T20:16:25.090Z,53.73
2019-04-16T20:21:29.098Z,51.37
2019-04-16T20:26:33.598Z,51.37
2019-04-16T20:31:37.733Z,53.96
2019-04-16T20:36:41.787Z,53.99
2019-04-16T20:41:52.740Z,54.25
2019-04-16T20:46:53.783Z,54.25
2019-04-16T20:52:00.451Z,54.83
2019-04-16T20:57:03.769Z,54.89
2019-04-16T21:02:07.914Z,55.02
2019-04-16T21:07:15.074Z,55.29
2019-04-16T21:12:17.929Z,54.91
2019-04-16T21:17:22.052Z,55.49
2019-04-16T21:22:28.101Z,55.41
2019-04-16T21:27:34.280Z,55.11
2019-04-16T21:32:54.020Z,55.07
2019-04-16T21:38:15.985Z,55.38
2019-04-16T21:43:20.115Z,55.75
2019-04-16T21:48:26.994Z,55.96
2019-04-16T21:53:29.925Z,55.64
2019-04-16T21:58:33.950Z,55.54
2019-04-16T22:03:42.204Z,55.62
2019-04-16T22:08:46.251Z,56.03
2019-04-16T22:13:51.294Z,56.03
2019-04-16T22:18:55.588Z,55.82
2019-04-16T22:25:01.247Z,56.20
2019-04-16T22:30:06.542Z,56.11
2019-04-16T22:35:10.807Z,56.11
2019-04-16T22:40:51.653Z,56.63
2019-04-16T22:45:59.448Z,56.81
2019-04-16T22:51:03.607Z,56.67
2019-04-16T22:56:07.588Z,57.04
2019-04-16T23:01:14.158Z,56.64
2019-04-16T23:06:17.566Z,56.56
2019-04-16T23:11:23.758Z,56.43
2019-04-16T23:16:27.363Z,57.02
2019-04-16T23:21:31.382Z,57.02
2019-04-16T23:26:35.498Z,57.28
2019-04-16T23:31:39.512Z,57.31
2019-04-16T23:36:44.613Z,56.93
2019-04-16T23:41:49.840Z,56.93
2019-04-16T23:47:11.945Z,57.63
2019-04-16T23:52:18.962Z,57.63
2019-04-16T23:57:28.132Z,57.59
